Time;durP1;ratioP1;P1;durP2;ratioP2;P2;SDS_P1;SDS_P2;PMS_P1;PMS_P2;Temp;Humidity;BMP_temperature;BMP_pressure;BME280_temperature;BME280_humidity;BME280_pressure;Samples;Min_cycle;Max_cycle;Signal;HPM_P1;HPM_P2
2021/03/12 00:01:13;;;;;;;13.65;2.50;;;6.00;99.90;;;;;;5018569;28;20041;-59
2021/03/12 00:03:38;;;;;;;12.25;2.53;;;6.00;99.90;;;;;;5015968;28;20044;-60
2021/03/12 00:06:07;;;;;;;13.93;2.45;;;6.10;99.90;;;;;;5018980;28;20109;-61
2021/03/12 00:08:41;;;;;;;9.55;1.90;;;6.10;99.90;;;;;;5022092;28;20021;-60
2021/03/12 00:11:08;;;;;;;9.32;1.33;;;6.10;99.90;;;;;;5020911;28;20105;-59
2021/03/12 00:13:35;;;;;;;7.70;1.85;;;6.10;99.90;;;;;;5003591;28;20079;-61
2021/03/12 00:16:02;;;;;;;11.38;2.00;;;6.10;99.90;;;;;;5010412;28;20044;-61
2021/03/12 00:18:45;;;;;;;14.50;3.60;;;6.10;99.90;;;;;;5020818;28;20048;-60
2021/03/12 00:21:12;;;;;;;11.98;1.95;;;6.00;99.90;;;;;;5009636;28;20084;-59
2021/03/12 00:23:41;;;;;;;10.35;2.28;;;5.90;99.90;;;;;;5009668;28;20033;-60
2021/03/12 00:26:07;;;;;;;8.55;2.60;;;5.80;99.90;;;;;;5020908;28;20022;-56
2021/03/12 00:28:34;;;;;;;9.63;1.83;;;5.80;99.90;;;;;;5012959;28;20806;-61
2021/03/12 00:31:01;;;;;;;6.65;1.17;;;5.80;99.90;;;;;;5009401;28;20041;-61
2021/03/12 00:33:28;;;;;;;8.35;1.88;;;5.70;99.90;;;;;;5023324;28;20119;-59
2021/03/12 00:35:54;;;;;;;9.85;1.85;;;5.70;99.90;;;;;;5020263;28;20101;-61
2021/03/12 00:38:20;;;;;;;11.70;2.38;;;5.70;99.90;;;;;;5009497;28;20113;-61
2021/03/12 00:40:52;;;;;;;2.42;1.33;;;5.60;99.90;;;;;;5006689;28;20551;-60
2021/03/12 00:43:19;;;;;;;10.27;2.65;;;5.60;99.90;;;;;;4992963;28;20045;-61
2021/03/12 00:45:49;;;;;;;8.88;2.40;;;5.50;99.90;;;;;;5008667;28;20025;-59
2021/03/12 00:48:15;;;;;;;11.13;2.75;;;5.60;99.90;;;;;;5007928;28;20030;-60
2021/03/12 00:50:41;;;;;;;14.57;3.05;;;5.60;99.90;;;;;;5014984;28;20037;-60
2021/03/12 00:53:07;;;;;;;18.73;3.13;;;5.60;99.90;;;;;;5011293;28;20521;-61
2021/03/12 00:55:34;;;;;;;10.55;2.92;;;5.60;99.90;;;;;;5029082;28;20116;-60
2021/03/12 00:58:00;;;;;;;10.80;3.03;;;5.60;99.90;;;;;;5014550;28;20026;-59
2021/03/12 01:00:27;;;;;;;12.18;2.53;;;5.70;99.90;;;;;;5014531;28;20498;-60
2021/03/12 01:02:53;;;;;;;9.45;2.42;;;5.70;99.90;;;;;;5005806;28;20049;-60
2021/03/12 01:05:19;;;;;;;8.27;2.63;;;5.70;99.90;;;;;;5007464;28;20480;-60
2021/03/12 01:07:45;;;;;;;7.47;1.52;;;5.70;99.90;;;;;;5014791;28;20040;-60
2021/03/12 01:10:12;;;;;;;9.52;2.10;;;5.80;99.90;;;;;;5020194;28;20026;-59
2021/03/12 01:12:38;;;;;;;6.45;1.60;;;5.80;99.90;;;;;;5011434;28;20661;-59
2021/03/12 01:15:07;;;;;;;4.25;1.52;;;5.90;99.90;;;;;;5004269;28;20032;-59
2021/03/12 01:17:32;;;;;;;10.52;2.60;;;5.90;99.90;;;;;;5020182;28;20141;-60
2021/03/12 01:19:59;;;;;;;7.80;1.70;;;5.90;99.90;;;;;;5017188;28;20030;-59
2021/03/12 01:22:24;;;;;;;4.30;1.40;;;6.00;99.90;;;;;;5013217;28;20057;-60
2021/03/12 01:24:50;;;;;;;8.18;1.35;;;5.90;99.90;;;;;;5016447;28;20065;-58
2021/03/12 01:27:16;;;;;;;5.50;1.50;;;5.90;99.90;;;;;;5007738;28;20121;-60
2021/03/12 01:29:41;;;;;;;3.28;1.02;;;5.90;99.90;;;;;;5013832;28;20556;-59
2021/03/12 01:32:07;;;;;;;4.97;1.70;;;5.80;99.90;;;;;;5006448;28;20022;-59
2021/03/12 01:34:33;;;;;;;8.85;1.67;;;5.80;99.90;;;;;;5021925;28;20381;-58
2021/03/12 01:36:59;;;;;;;7.35;1.77;;;5.80;99.90;;;;;;5021774;28;20033;-60
2021/03/12 01:39:24;;;;;;;6.72;2.08;;;5.80;99.90;;;;;;5016566;28;20105;-60
2021/03/12 01:41:50;;;;;;;17.73;2.28;;;5.70;99.90;;;;;;5016412;28;20037;-60
2021/03/12 01:44:16;;;;;;;9.18;2.92;;;5.70;99.90;;;;;;4957682;28;20049;-60
2021/03/12 01:46:42;;;;;;;12.93;3.08;;;5.80;99.90;;;;;;5007569;28;20030;-60
2021/03/12 01:49:07;;;;;;;11.27;2.80;;;5.70;99.90;;;;;;5008606;28;20025;-60
2021/03/12 01:51:33;;;;;;;7.43;1.83;;;5.80;99.90;;;;;;5019364;28;20026;-60
2021/03/12 01:54:00;;;;;;;10.15;2.13;;;5.70;99.90;;;;;;5015165;28;20028;-58
2021/03/12 01:56:25;;;;;;;12.55;1.80;;;5.80;99.90;;;;;;5007046;28;20026;-59
2021/03/12 01:58:52;;;;;;;9.43;2.83;;;5.80;99.90;;;;;;4992301;28;20030;-60
2021/03/12 02:01:17;;;;;;;10.85;2.40;;;5.90;99.90;;;;;;4993234;28;20033;-58
2021/03/12 02:03:43;;;;;;;13.18;2.40;;;5.90;99.90;;;;;;4991066;28;20034;-59
2021/03/12 02:06:09;;;;;;;9.82;2.80;;;5.90;99.90;;;;;;4982310;28;20034;-57
2021/03/12 02:08:34;;;;;;;11.82;2.50;;;5.80;99.90;;;;;;4985031;28;20455;-58
2021/03/12 02:11:00;;;;;;;14.77;2.20;;;5.80;99.90;;;;;;4989254;28;20037;-59
2021/03/12 02:13:55;;;;;;;6.95;1.83;;;5.80;99.90;;;;;;5000943;28;20121;-59
2021/03/12 02:16:27;;;;;;;10.27;2.65;;;5.80;99.90;;;;;;5001694;28;20045;-60
2021/03/12 02:19:06;;;;;;;12.90;2.03;;;5.80;99.90;;;;;;5016781;28;20060;-59
2021/03/12 02:21:38;;;;;;;22.85;4.63;;;5.90;99.90;;;;;;5012025;28;20037;-61
2021/03/12 02:24:22;;;;;;;19.77;3.45;;;5.80;99.90;;;;;;5016600;28;20481;-60
2021/03/12 02:26:52;;;;;;;13.68;2.88;;;5.80;99.90;;;;;;5006367;28;20018;-60
2021/03/12 02:29:20;;;;;;;10.40;2.33;;;5.80;99.90;;;;;;5011185;28;20503;-58
2021/03/12 02:31:48;;;;;;;11.27;2.50;;;5.70;99.90;;;;;;4993429;28;20724;-61
2021/03/12 02:34:17;;;;;;;16.77;3.15;;;5.70;99.90;;;;;;4988863;28;20034;-58
2021/03/12 02:36:49;;;;;;;16.08;2.72;;;5.60;99.90;;;;;;5008691;28;20022;-60
2021/03/12 02:39:19;;;;;;;13.10;2.95;;;5.60;99.90;;;;;;5017826;28;20025;-59
2021/03/12 02:41:48;;;;;;;18.65;3.08;;;5.60;99.90;;;;;;5022672;28;20080;-60
2021/03/12 02:44:14;;;;;;;10.95;3.45;;;5.60;99.90;;;;;;5008055;28;20026;-60
2021/03/12 02:46:40;;;;;;;7.43;2.35;;;5.50;99.90;;;;;;4995595;28;20029;-60
2021/03/12 02:49:07;;;;;;;14.30;4.82;;;5.50;99.90;;;;;;4994226;28;20526;-61
2021/03/12 02:51:33;;;;;;;15.10;2.88;;;5.50;99.90;;;;;;5002254;28;20038;-61
2021/03/12 02:53:59;;;;;;;20.23;3.50;;;5.60;99.90;;;;;;5013086;28;20032;-59
2021/03/12 02:56:26;;;;;;;23.73;4.00;;;5.60;99.90;;;;;;5011356;28;20032;-62
2021/03/12 02:58:52;;;;;;;12.25;3.13;;;5.60;99.90;;;;;;5007255;28;21601;-61
2021/03/12 03:01:19;;;;;;;10.52;2.38;;;5.60;99.90;;;;;;4994449;28;20026;-60
2021/03/12 03:03:47;;;;;;;7.70;2.33;;;5.60;99.90;;;;;;4995348;28;20026;-60
2021/03/12 03:06:15;;;;;;;14.52;2.78;;;5.50;99.90;;;;;;5001504;28;20499;-60
2021/03/12 03:08:43;;;;;;;12.10;2.67;;;5.50;99.90;;;;;;5009983;28;20105;-60
2021/03/12 03:11:10;;;;;;;14.32;2.88;;;5.50;99.90;;;;;;4990445;28;20141;-60
2021/03/12 03:13:39;;;;;;;17.75;2.97;;;5.50;99.90;;;;;;5035372;28;20030;-61
2021/03/12 03:16:07;;;;;;;11.43;2.63;;;5.50;99.90;;;;;;4994190;28;20034;-60
2021/03/12 03:18:37;;;;;;;13.55;2.58;;;5.50;99.90;;;;;;4997498;28;20037;-61
2021/03/12 03:21:04;;;;;;;10.30;2.30;;;5.50;99.90;;;;;;5007465;28;20033;-59
2021/03/12 03:23:30;;;;;;;8.15;2.67;;;5.50;99.90;;;;;;4998076;28;20120;-61
2021/03/12 03:25:55;;;;;;;10.25;2.75;;;5.60;99.90;;;;;;5012723;28;20104;-60
2021/03/12 03:28:22;;;;;;;13.43;2.55;;;5.50;99.90;;;;;;5008082;28;20452;-59
2021/03/12 03:30:48;;;;;;;12.23;2.67;;;5.50;99.90;;;;;;4998115;28;20084;-60
2021/03/12 03:33:14;;;;;;;14.68;3.15;;;5.60;99.90;;;;;;5001005;28;20081;-57
2021/03/12 03:35:40;;;;;;;20.58;4.63;;;5.60;99.90;;;;;;5005773;28;20069;-60
2021/03/12 03:38:05;;;;;;;18.48;2.83;;;5.50;99.90;;;;;;5017271;28;20492;-59
2021/03/12 03:40:31;;;;;;;16.42;2.45;;;5.50;99.90;;;;;;5018065;28;20411;-60
2021/03/12 03:42:59;;;;;;;14.73;3.70;;;5.50;99.90;;;;;;5021700;28;20628;-58
2021/03/12 03:45:27;;;;;;;18.95;4.68;;;5.50;99.90;;;;;;4995940;28;20034;-60
2021/03/12 03:47:55;;;;;;;18.92;2.78;;;5.60;99.90;;;;;;5001937;28;20030;-59
2021/03/12 03:50:21;;;;;;;17.00;2.53;;;5.60;99.90;;;;;;4988699;28;20023;-60
2021/03/12 03:52:47;;;;;;;16.48;3.10;;;5.60;99.90;;;;;;5017622;28;20124;-60
2021/03/12 03:55:14;;;;;;;12.80;2.58;;;5.50;99.90;;;;;;5005347;28;20110;-60
2021/03/12 03:57:40;;;;;;;12.90;2.20;;;5.60;99.90;;;;;;5016174;28;20025;-59
2021/03/12 04:00:08;;;;;;;13.40;3.42;;;5.60;99.90;;;;;;5024007;28;20748;-61
2021/03/12 04:02:35;;;;;;;21.25;3.13;;;5.60;99.90;;;;;;5002701;28;20033;-61
2021/03/12 04:05:04;;;;;;;10.43;2.35;;;5.60;99.90;;;;;;5001408;28;20102;-60
2021/03/12 04:07:31;;;;;;;11.48;2.30;;;5.60;99.90;;;;;;5001546;28;20030;-56
2021/03/12 04:09:57;;;;;;;15.65;2.50;;;5.70;99.90;;;;;;5017905;28;20136;-60
2021/03/12 04:12:24;;;;;;;18.35;2.67;;;5.70;99.90;;;;;;5018396;28;20032;-61
2021/03/12 04:14:50;;;;;;;13.73;3.83;;;5.70;99.90;;;;;;5015860;28;20723;-60
2021/03/12 04:17:16;;;;;;;15.85;2.40;;;5.70;99.90;;;;;;5005383;28;20092;-60
2021/03/12 04:19:46;;;;;;;21.92;2.30;;;5.70;99.90;;;;;;5016264;28;20030;-60
2021/03/12 04:22:13;;;;;;;15.80;4.72;;;5.70;99.90;;;;;;5019356;28;20026;-59
2021/03/12 04:24:39;;;;;;;20.17;3.03;;;5.70;99.90;;;;;;5020162;28;20040;-60
2021/03/12 04:27:06;;;;;;;6.88;2.08;;;5.70;99.90;;;;;;5019040;28;20021;-61
2021/03/12 04:29:32;;;;;;;12.38;2.63;;;5.70;99.90;;;;;;5018621;28;20030;-60
2021/03/12 04:31:58;;;;;;;15.48;2.38;;;5.70;99.90;;;;;;5017298;28;20033;-60
2021/03/12 04:34:24;;;;;;;7.47;1.58;;;5.70;99.90;;;;;;5012278;28;20040;-60
2021/03/12 04:36:51;;;;;;;15.15;3.22;;;5.70;99.90;;;;;;5008258;28;20030;-61
2021/03/12 04:39:18;;;;;;;12.55;2.33;;;5.70;99.90;;;;;;5016098;28;20025;-60
2021/03/12 04:41:44;;;;;;;16.98;2.70;;;5.70;99.90;;;;;;5014741;28;20029;-61
2021/03/12 04:44:11;;;;;;;12.10;3.38;;;5.70;99.90;;;;;;5022733;28;20030;-60
2021/03/12 04:46:38;;;;;;;12.57;2.45;;;5.70;99.90;;;;;;5010980;28;20034;-60
2021/03/12 04:49:06;;;;;;;9.25;1.90;;;5.60;99.90;;;;;;5008128;28;20373;-58
2021/03/12 04:51:32;;;;;;;14.45;2.05;;;5.60;99.90;;;;;;5009547;28;20026;-61
2021/03/12 04:53:58;;;;;;;11.23;2.60;;;5.60;99.90;;;;;;5023653;28;20044;-61
2021/03/12 04:56:23;;;;;;;10.45;3.20;;;5.60;99.90;;;;;;5018219;28;20033;-60
2021/03/12 04:58:49;;;;;;;14.70;2.08;;;5.60;99.90;;;;;;5022029;28;20044;-61
2021/03/12 05:01:15;;;;;;;17.20;2.60;;;5.60;99.90;;;;;;5016909;28;20041;-60
2021/03/12 05:03:41;;;;;;;13.25;1.98;;;5.60;99.90;;;;;;5003966;28;20034;-60
2021/03/12 05:06:08;;;;;;;10.18;1.75;;;5.60;99.90;;;;;;5018781;28;20475;-61
2021/03/12 05:08:36;;;;;;;12.30;3.05;;;5.60;99.90;;;;;;5019039;28;20399;-61
2021/03/12 05:11:06;;;;;;;8.23;2.13;;;5.60;99.90;;;;;;5021870;28;20053;-60
2021/03/12 05:13:32;;;;;;;10.15;2.17;;;5.60;99.90;;;;;;5017309;28;20084;-61
2021/03/12 05:15:57;;;;;;;21.00;2.00;;;5.60;99.90;;;;;;5022359;28;20112;-61
2021/03/12 05:18:23;;;;;;;19.73;4.22;;;5.60;99.90;;;;;;5011857;28;20034;-61
2021/03/12 05:20:50;;;;;;;9.43;2.13;;;5.60;99.90;;;;;;5014006;28;20030;-60
2021/03/12 05:23:16;;;;;;;14.68;1.95;;;5.60;99.90;;;;;;5021518;28;20030;-61
2021/03/12 05:25:42;;;;;;;15.93;1.85;;;5.60;99.90;;;;;;5011232;28;20400;-60
2021/03/12 05:28:08;;;;;;;12.65;3.00;;;5.60;99.90;;;;;;5015266;28;20021;-59
2021/03/12 05:30:34;;;;;;;13.27;2.08;;;5.60;99.90;;;;;;5014860;28;20609;-61
2021/03/12 05:32:59;;;;;;;14.52;2.63;;;5.60;99.90;;;;;;5013508;28;20046;-60
2021/03/12 05:35:25;;;;;;;23.27;3.10;;;5.60;99.90;;;;;;5019706;28;20065;-60
2021/03/12 05:37:50;;;;;;;10.95;2.13;;;5.60;99.90;;;;;;5017836;28;20507;-61
2021/03/12 05:40:16;;;;;;;10.05;2.05;;;5.60;99.90;;;;;;5023558;28;20045;-61
2021/03/12 05:42:43;;;;;;;12.32;1.65;;;5.60;99.90;;;;;;5014340;28;20029;-60
2021/03/12 05:45:10;;;;;;;12.68;2.80;;;5.60;99.90;;;;;;4960605;28;20034;-61
2021/03/12 05:47:36;;;;;;;14.95;2.45;;;5.70;99.90;;;;;;5007209;28;20120;-61
2021/03/12 05:50:03;;;;;;;19.77;2.58;;;5.70;99.90;;;;;;5011157;28;20029;-61
2021/03/12 05:52:29;;;;;;;8.13;2.30;;;5.70;99.90;;;;;;5015138;28;20033;-60
2021/03/12 05:54:55;;;;;;;15.43;2.78;;;5.70;99.90;;;;;;5008729;28;20117;-61
2021/03/12 05:57:23;;;;;;;12.82;2.42;;;5.70;99.90;;;;;;5016341;28;20563;-61
2021/03/12 05:59:49;;;;;;;19.73;2.58;;;5.70;99.90;;;;;;5015085;28;20042;-62
2021/03/12 06:02:15;;;;;;;11.60;2.15;;;5.80;99.90;;;;;;4998618;28;20042;-61
2021/03/12 06:04:41;;;;;;;11.35;2.15;;;5.80;99.90;;;;;;5010951;28;20418;-62
2021/03/12 06:07:06;;;;;;;16.30;2.63;;;5.80;99.90;;;;;;5016613;28;20038;-61
2021/03/12 06:09:32;;;;;;;19.83;2.63;;;5.80;99.90;;;;;;5019077;28;20026;-62
2021/03/12 06:11:57;;;;;;;14.85;2.35;;;5.80;99.90;;;;;;5013258;28;20033;-62
2021/03/12 06:14:50;;;;;;;18.20;3.25;;;5.80;99.90;;;;;;5015580;28;20084;-62
2021/03/12 06:17:31;;;;;;;11.75;2.25;;;5.80;99.90;;;;;;5000613;28;20042;-63
2021/03/12 06:19:57;;;;;;;18.88;3.20;;;5.80;99.90;;;;;;5005836;28;20037;-62
2021/03/12 06:22:23;;;;;;;12.40;2.28;;;5.90;99.90;;;;;;5003062;28;20042;-62
2021/03/12 06:24:49;;;;;;;12.93;2.63;;;5.90;99.90;;;;;;5011747;28;20029;-62
2021/03/12 06:27:29;;;;;;;13.05;1.90;;;5.90;99.90;;;;;;5012052;28;20026;-62
2021/03/12 06:29:59;;;;;;;12.40;2.10;;;6.00;99.90;;;;;;5012201;28;20041;-61
2021/03/12 06:32:41;;;;;;;18.02;2.35;;;6.00;99.90;;;;;;5015791;28;20044;-62
2021/03/12 06:35:08;;;;;;;19.75;2.45;;;6.00;99.90;;;;;;5016379;28;20033;-62
2021/03/12 06:37:35;;;;;;;20.85;2.42;;;6.10;99.90;;;;;;5016914;28;20045;-60
2021/03/12 06:40:29;;;;;;;13.30;2.00;;;6.20;99.90;;;;;;5022960;28;20026;-62
2021/03/12 06:43:15;;;;;;;16.08;2.83;;;6.20;99.90;;;;;;5010355;28;20160;-62
2021/03/12 06:45:40;;;;;;;15.13;2.38;;;6.20;99.90;;;;;;4997725;28;20021;-60
2021/03/12 06:48:31;;;;;;;12.50;2.30;;;6.30;99.90;;;;;;5006486;28;20087;-61
2021/03/12 06:51:02;;;;;;;12.50;2.17;;;6.30;99.90;;;;;;5010490;28;20116;-61
2021/03/12 06:53:34;;;;;;;13.60;2.30;;;6.30;99.90;;;;;;5012402;28;20506;-62
2021/03/12 06:56:03;;;;;;;16.23;2.25;;;6.40;99.90;;;;;;5012468;28;20038;-62
2021/03/12 06:58:29;;;;;;;13.82;2.80;;;6.40;99.90;;;;;;5018760;28;20495;-62
2021/03/12 07:00:55;;;;;;;14.43;2.25;;;6.40;99.90;;;;;;5013554;28;20041;-62
2021/03/12 07:03:32;;;;;;;9.70;1.85;;;6.40;99.90;;;;;;5000404;28;20466;-62
2021/03/12 07:05:59;;;;;;;9.27;1.60;;;6.40;99.90;;;;;;5002287;28;20019;-61
2021/03/12 07:08:30;;;;;;;8.75;2.15;;;6.40;99.90;;;;;;5008546;28;20080;-61
2021/03/12 07:10:56;;;;;;;16.85;1.90;;;6.40;99.90;;;;;;5004228;28;20018;-61
2021/03/12 07:13:22;;;;;;;11.98;2.42;;;6.40;99.90;;;;;;5011463;28;20125;-61
2021/03/12 07:15:51;;;;;;;14.55;2.50;;;6.50;99.90;;;;;;5002426;28;20503;-60
2021/03/12 07:18:17;;;;;;;11.18;2.22;;;6.60;99.90;;;;;;5001354;28;20443;-63
2021/03/12 07:20:43;;;;;;;15.55;2.30;;;6.70;99.90;;;;;;5011161;28;20029;-61
2021/03/12 07:23:09;;;;;;;15.20;2.17;;;6.80;99.90;;;;;;5009339;28;20116;-62
2021/03/12 07:25:35;;;;;;;13.85;2.70;;;6.90;99.90;;;;;;5020512;28;20369;-61
2021/03/12 07:28:02;;;;;;;22.15;2.38;;;7.00;99.90;;;;;;5016753;28;20116;-60
2021/03/12 07:30:29;;;;;;;16.58;3.33;;;6.90;99.90;;;;;;5006258;28;20021;-62
2021/03/12 07:32:57;;;;;;;10.90;2.30;;;7.00;99.90;;;;;;5009988;28;20105;-61
2021/03/12 07:35:25;;;;;;;11.25;2.20;;;7.00;99.90;;;;;;5002537;28;20026;-62
2021/03/12 07:37:52;;;;;;;14.00;1.58;;;7.00;99.90;;;;;;5008767;28;20026;-62
2021/03/12 07:40:19;;;;;;;16.15;2.70;;;7.10;99.90;;;;;;5019041;28;20034;-60
2021/03/12 07:42:47;;;;;;;12.23;2.58;;;7.20;99.90;;;;;;5018616;28;20025;-62
2021/03/12 07:45:16;;;;;;;8.52;1.42;;;7.20;99.90;;;;;;5015610;28;20498;-62
2021/03/12 07:47:44;;;;;;;12.90;2.00;;;7.40;99.90;;;;;;5003006;28;20033;-62
2021/03/12 07:50:32;;;;;;;9.23;1.83;;;7.60;99.90;;;;;;5007750;28;20030;-60
2021/03/12 07:53:00;;;;;;;7.30;1.98;;;7.90;99.90;;;;;;5010011;28;20029;-62
2021/03/12 07:55:35;;;;;;;13.68;3.08;;;8.00;99.90;;;;;;5013274;28;20052;-61
2021/03/12 07:58:02;;;;;;;15.20;2.17;;;7.90;99.90;;;;;;5020077;28;20091;-62
2021/03/12 08:00:27;;;;;;;15.07;1.98;;;7.90;99.90;;;;;;5004385;28;20137;-62
2021/03/12 08:02:58;;;;;;;13.38;3.08;;;8.10;99.90;;;;;;5011021;28;20160;-63
2021/03/12 08:05:36;;;;;;;12.10;2.00;;;8.10;99.90;;;;;;5010143;28;20056;-60
2021/03/12 08:08:03;;;;;;;8.02;1.77;;;8.00;99.90;;;;;;5015832;28;20442;-61
2021/03/12 08:10:29;;;;;;;12.65;2.30;;;8.20;99.90;;;;;;5016013;28;20079;-62
2021/03/12 08:12:55;;;;;;;5.57;1.30;;;8.20;99.90;;;;;;5017204;28;20033;-62
2021/03/12 08:15:23;;;;;;;12.35;3.42;;;8.40;99.90;;;;;;5021211;28;20073;-62
2021/03/12 08:18:12;;;;;;;11.10;2.38;;;8.70;99.90;;;;;;5003658;28;20026;-62
2021/03/12 08:20:42;;;;;;;13.73;1.90;;;8.90;99.90;;;;;;5004959;28;20041;-61
2021/03/12 08:23:12;;;;;;;9.63;1.98;;;8.90;99.90;;;;;;5014170;28;20069;-62
2021/03/12 08:25:43;;;;;;;9.80;1.60;;;8.90;99.90;;;;;;5018784;28;20033;-62
2021/03/12 08:28:12;;;;;;;17.30;3.97;;;8.90;99.90;;;;;;5010752;28;20026;-61
2021/03/12 08:30:37;;;;;;;12.48;3.38;;;8.80;99.90;;;;;;5007245;28;20479;-61
2021/03/12 08:33:25;;;;;;;10.10;2.08;;;9.00;99.90;;;;;;5006175;28;20089;-61
2021/03/12 08:35:52;;;;;;;10.52;2.00;;;9.10;99.90;;;;;;5027230;28;20504;-62
2021/03/12 08:40:59;;;;;;;11.40;2.67;;;9.00;99.90;;;;;;5015077;28;20125;-63
2021/03/12 08:43:27;;;;;;;9.45;2.20;;;8.70;99.90;;;;;;5007767;28;20034;-62
2021/03/12 08:45:55;;;;;;;9.80;2.17;;;8.80;99.90;;;;;;5023145;28;20018;-62
2021/03/12 08:48:29;;;;;;;7.88;2.08;;;8.80;99.90;;;;;;4999323;28;20062;-63
2021/03/12 08:50:55;;;;;;;12.88;2.40;;;9.20;99.90;;;;;;5002378;28;20020;-63
2021/03/12 08:53:22;;;;;;;17.60;2.83;;;9.60;99.90;;;;;;5021822;28;20030;-61
2021/03/12 08:55:50;;;;;;;15.32;2.33;;;9.50;99.90;;;;;;5022577;28;20084;-62
2021/03/12 08:58:20;;;;;;;12.75;1.77;;;9.40;99.90;;;;;;5016032;28;20053;-61
2021/03/12 09:00:48;;;;;;;10.90;1.88;;;9.30;99.90;;;;;;5000707;28;20069;-62
2021/03/12 09:03:20;;;;;;;13.90;2.33;;;9.00;99.90;;;;;;5005577;28;20045;-63
2021/03/12 09:05:48;;;;;;;13.18;2.72;;;8.70;99.90;;;;;;5002555;28;20018;-62
2021/03/12 09:08:15;;;;;;;11.35;2.92;;;8.60;99.90;;;;;;5008632;28;20091;-61
2021/03/12 09:10:41;;;;;;;9.90;2.00;;;8.40;99.90;;;;;;5009123;28;20021;-62
2021/03/12 09:13:15;;;;;;;11.40;1.45;;;8.50;99.90;;;;;;5005805;28;20033;-62
2021/03/12 09:15:41;;;;;;;11.48;2.35;;;8.30;99.90;;;;;;5007232;28;20034;-62
2021/03/12 09:18:07;;;;;;;16.95;2.13;;;8.40;99.90;;;;;;5007975;28;20059;-59
2021/03/12 09:20:34;;;;;;;12.15;2.60;;;8.40;99.90;;;;;;4998756;28;20500;-62
2021/03/12 09:23:00;;;;;;;11.38;1.92;;;8.30;99.90;;;;;;5005941;28;20022;-63
2021/03/12 09:25:31;;;;;;;14.60;2.95;;;8.20;99.90;;;;;;5010241;28;20399;-60
2021/03/12 09:28:02;;;;;;;10.85;2.42;;;8.30;99.90;;;;;;5012062;28;22304;-62
2021/03/12 09:30:32;;;;;;;9.60;1.88;;;8.50;99.90;;;;;;4998903;28;20026;-63
2021/03/12 09:32:58;;;;;;;12.32;1.92;;;8.60;99.90;;;;;;4998548;28;20503;-62
2021/03/12 09:35:24;;;;;;;16.58;2.13;;;8.60;99.90;;;;;;4997832;28;20034;-62
2021/03/12 09:37:52;;;;;;;15.45;2.33;;;8.60;99.90;;;;;;5010451;28;20042;-61
2021/03/12 09:40:31;;;;;;;16.52;2.67;;;8.50;99.90;;;;;;5017517;28;20095;-62
2021/03/12 09:42:57;;;;;;;15.40;3.55;;;8.70;99.90;;;;;;5018338;28;20422;-63
2021/03/12 09:45:26;;;;;;;11.32;2.60;;;8.70;99.90;;;;;;4994793;28;20030;-62
2021/03/12 09:47:53;;;;;;;13.98;3.28;;;8.80;99.90;;;;;;4997244;28;20023;-61
2021/03/12 09:50:24;;;;;;;10.57;2.72;;;8.90;99.90;;;;;;4997219;28;20388;-62
2021/03/12 09:52:52;;;;;;;7.28;1.77;;;9.00;99.90;;;;;;4996525;28;20710;-62
2021/03/12 09:55:18;;;;;;;14.65;2.55;;;8.90;99.90;;;;;;4992732;28;20034;-62
2021/03/12 09:57:44;;;;;;;13.40;2.53;;;8.80;99.90;;;;;;4992334;28;20026;-62
2021/03/12 10:00:10;;;;;;;14.05;3.25;;;8.90;99.90;;;;;;4999221;28;20030;-62
2021/03/12 10:02:55;;;;;;;13.93;2.42;;;9.10;99.90;;;;;;4992032;28;20038;-63
2021/03/12 10:05:21;;;;;;;8.63;2.58;;;9.40;99.90;;;;;;4993964;28;20089;-64
2021/03/12 10:07:48;;;;;;;14.60;4.55;;;9.50;99.90;;;;;;5006385;28;20026;-61
2021/03/12 10:10:18;;;;;;;57.47;26.95;;;9.50;99.90;;;;;;5007931;28;20065;-62
2021/03/12 10:12:45;;;;;;;22.23;13.27;;;9.60;99.90;;;;;;5011041;28;20053;-63
2021/03/12 10:15:12;;;;;;;14.77;3.88;;;9.50;99.90;;;;;;4998479;28;20033;-61
2021/03/12 10:17:40;;;;;;;9.10;2.97;;;9.50;99.90;;;;;;4995462;28;20608;-62
2021/03/12 10:20:08;;;;;;;10.23;2.40;;;9.80;99.90;;;;;;4995056;28;20034;-60
2021/03/12 10:22:43;;;;;;;10.52;2.08;;;9.90;99.90;;;;;;5009449;28;20038;-62
2021/03/12 10:25:09;;;;;;;12.05;2.42;;;10.10;99.60;;;;;;5018072;28;20026;-60
2021/03/12 10:27:37;;;;;;;10.23;3.22;;;10.30;99.40;;;;;;5009729;28;20056;-61
2021/03/12 10:30:16;;;;;;;8.18;2.00;;;10.30;98.40;;;;;;5002806;28;20033;-58
2021/03/12 10:32:44;;;;;;;15.75;2.72;;;10.30;98.10;;;;;;4992688;28;20036;-61
2021/03/12 10:35:17;;;;;;;10.80;2.08;;;10.60;98.20;;;;;;4990027;28;20064;-60
2021/03/12 10:37:42;;;;;;;70.93;25.65;;;10.80;97.20;;;;;;5006753;28;20028;-60
2021/03/12 10:40:08;;;;;;;147.25;51.55;;;11.00;95.90;;;;;;5020547;28;20434;-60
2021/03/12 10:42:34;;;;;;;20.42;7.05;;;11.20;95.40;;;;;;5006410;28;20037;-61
2021/03/12 10:45:05;;;;;;;12.25;2.72;;;11.40;94.30;;;;;;5001788;28;20022;-59
2021/03/12 10:47:31;;;;;;;55.60;21.52;;;11.20;94.80;;;;;;5010910;28;20061;-60
2021/03/12 10:49:57;;;;;;;9.70;2.70;;;11.20;94.80;;;;;;5001772;28;20061;-61
2021/03/12 10:52:27;;;;;;;19.23;4.93;;;11.10;94.60;;;;;;5019156;28;20034;-61
2021/03/12 10:54:53;;;;;;;12.75;3.03;;;11.10;95.30;;;;;;5015391;28;20033;-59
2021/03/12 10:57:40;;;;;;;11.77;2.80;;;11.20;94.30;;;;;;5011744;28;20104;-61
2021/03/12 11:00:17;;;;;;;11.73;2.42;;;11.50;92.70;;;;;;4994998;28;20117;-61
2021/03/12 11:02:44;;;;;;;11.65;3.72;;;11.40;93.40;;;;;;4994396;28;20120;-61
2021/03/12 11:05:10;;;;;;;12.27;2.47;;;11.60;93.90;;;;;;4998513;28;20682;-62
2021/03/12 11:07:36;;;;;;;9.80;2.05;;;11.80;92.70;;;;;;5005157;28;20523;-62
2021/03/12 11:10:02;;;;;;;11.48;2.05;;;11.60;92.20;;;;;;5015420;28;20104;-61
2021/03/12 11:12:41;;;;;;;9.35;2.20;;;11.30;91.80;;;;;;5008607;28;20026;-61
2021/03/12 11:15:08;;;;;;;10.85;2.00;;;11.10;92.80;;;;;;5014818;28;20029;-61
2021/03/12 11:17:34;;;;;;;13.02;2.75;;;10.90;93.70;;;;;;4989797;28;20037;-60
2021/03/12 11:19:59;;;;;;;15.75;6.13;;;11.30;93.80;;;;;;4989702;28;20034;-61
2021/03/12 11:22:25;;;;;;;14.20;6.07;;;11.70;93.30;;;;;;4995787;28;20052;-60
2021/03/12 11:24:50;;;;;;;11.27;2.28;;;12.10;92.30;;;;;;5004154;28;20025;-61
2021/03/12 11:27:16;;;;;;;10.60;2.38;;;12.20;91.20;;;;;;5016395;28;20434;-61
2021/03/12 11:29:43;;;;;;;7.68;2.22;;;12.10;91.40;;;;;;4994713;28;20040;-61
2021/03/12 11:32:09;;;;;;;9.77;2.72;;;11.90;90.40;;;;;;4991090;28;20069;-61
2021/03/12 11:34:35;;;;;;;8.20;2.00;;;11.70;91.10;;;;;;5008347;28;20046;-61
2021/03/12 11:37:01;;;;;;;7.55;1.92;;;11.80;90.80;;;;;;4997703;28;20037;-60
2021/03/12 11:39:27;;;;;;;9.50;2.03;;;11.40;90.90;;;;;;5014815;28;20415;-61
2021/03/12 11:41:52;;;;;;;7.80;2.08;;;11.50;92.60;;;;;;5019781;28;20028;-61
2021/03/12 11:44:18;;;;;;;7.43;1.45;;;11.40;91.10;;;;;;4999229;28;20030;-61
2021/03/12 11:46:44;;;;;;;7.18;1.98;;;11.20;91.00;;;;;;5000882;28;20034;-60
2021/03/12 11:49:09;;;;;;;9.90;2.58;;;11.20;91.60;;;;;;4997159;28;20169;-62
2021/03/12 11:51:37;;;;;;;6.20;1.45;;;11.30;91.20;;;;;;5010126;28;20030;-60
2021/03/12 11:54:02;;;;;;;9.88;2.80;;;11.30;91.80;;;;;;5024438;28;20017;-60
2021/03/12 11:56:28;;;;;;;9.10;2.60;;;11.40;91.80;;;;;;5015559;28;20034;-60
2021/03/12 11:58:54;;;;;;;6.78;2.47;;;11.20;91.20;;;;;;5016516;28;20034;-59
2021/03/12 12:01:20;;;;;;;11.57;2.55;;;11.40;91.50;;;;;;5006561;28;20032;-61
2021/03/12 12:03:46;;;;;;;9.05;2.05;;;11.30;90.80;;;;;;4996724;28;20030;-60
2021/03/12 12:06:11;;;;;;;7.28;2.45;;;11.30;91.30;;;;;;4997972;28;20037;-59
2021/03/12 12:08:37;;;;;;;8.25;1.95;;;11.80;91.60;;;;;;5011220;28;20042;-61
2021/03/12 12:11:02;;;;;;;12.48;2.17;;;11.80;88.50;;;;;;5006251;28;20026;-60
2021/03/12 12:13:28;;;;;;;7.88;1.80;;;11.60;90.00;;;;;;5015237;28;20440;-61
2021/03/12 12:15:54;;;;;;;12.90;4.53;;;11.60;90.00;;;;;;4997435;28;20484;-61
2021/03/12 12:18:19;;;;;;;15.48;4.63;;;11.70;90.30;;;;;;5015025;28;21059;-62
2021/03/12 12:20:45;;;;;;;8.43;3.40;;;11.70;90.90;;;;;;5001529;28;20781;-61
2021/03/12 12:23:11;;;;;;;13.07;4.30;;;11.60;90.10;;;;;;5011971;28;20030;-61
2021/03/12 12:25:37;;;;;;;7.75;2.25;;;11.40;89.00;;;;;;5009464;28;20032;-62
2021/03/12 12:28:06;;;;;;;9.45;2.88;;;11.50;88.10;;;;;;5006667;28;20164;-59
2021/03/12 12:30:31;;;;;;;10.88;2.35;;;11.40;87.90;;;;;;4994253;28;20074;-60
2021/03/12 12:32:58;;;;;;;10.70;2.60;;;11.30;86.80;;;;;;5003665;28;20072;-61
2021/03/12 12:35:24;;;;;;;7.10;2.47;;;11.10;84.90;;;;;;5001606;28;20082;-60
2021/03/12 12:37:50;;;;;;;5.82;1.70;;;11.10;86.20;;;;;;4994717;28;20403;-60
2021/03/12 12:40:19;;;;;;;6.85;2.42;;;10.90;86.30;;;;;;4997682;28;20035;-60
2021/03/12 12:42:45;;;;;;;8.23;1.77;;;10.80;87.70;;;;;;4996024;28;20069;-61
2021/03/12 12:45:11;;;;;;;5.82;2.15;;;10.70;90.20;;;;;;5011494;28;20056;-61
2021/03/12 12:47:37;;;;;;;11.38;2.90;;;10.50;90.60;;;;;;5009640;28;20058;-62
2021/03/12 12:50:04;;;;;;;14.40;3.35;;;10.40;91.10;;;;;;5010568;28;20447;-58
2021/03/12 12:52:30;;;;;;;8.60;1.85;;;10.20;91.70;;;;;;5014136;28;20067;-60
2021/03/12 12:54:56;;;;;;;6.65;1.92;;;10.30;92.20;;;;;;5018135;28;20026;-61